Rubidoux, California
Current Conditions -  °F | °C
As of 1:53 PM on Monday 24 Nov 2014 (Local Time) from KRAL Reporting Station
Clear Clear  
Wind Chill: 76°   Ceiling: Unl
Heat Index: 76°   Visibility: 10mi
Dew Point: 11°   Wind: 13mph
Humidity: 8%   Direction: 10°N
Pressure: 30.2"   Gusts: 23mph
Location:  33.9957°N, 117.412°W
Report Text: KRAL 242153Z 01011G20KT 10SM CLR 24/M12 A3020 RMK AO2 PK WND 02026/2105 SLP214 T02441117
Loading
Personal Weather Stations






























Interactive Weather Map New forecast layout! Learn more

10-Day Weather Forecast

Advertisements
Track Severe Weather on mobile